Página principal
METAR-TAF:

METAR-TAF

Aeroportos :

Aeroporto de Paris-Charles de Gaulle

Paris-Charles De Gaulle, França

latitude: 49-01N, longitude: 002-32E, altura: 118 m

Observação actual do tempo

O boletim foi feito há 30 minutos, às 11:00 UTC
Vento 10 kt de nor-nordeste, variando entre norte e es-nordeste
Temperatura 18°C
Humidade 68%
Pressão 1022 hPa
Visibilidade 10 km ou mais
sem nuvens abaixo de 1500 metros e sem cumulonimbus

METAR: LFPG 181100Z 03010KT 360V060 CAVOK 18/12 Q1022 NOSIG

Hora: 13:30 (11:30 UTC)

Previsão

O boletim foi feito há 6 horas e 30 minutos, às 05:00 UTC
Previsão válida de 18 às 06 UTC a 19 às 12 UTC
Vento 12 kt de nor-nordeste
Visibilidade: 6000 m
Tornando-se
de 18 às 06 UTC a 18 às 09 UTC
Visibilidade 10 km ou mais
sem nuvens abaixo de 1500 metros e sem cumulonimbus
Probabilidade 40%
de 19 às 04 UTC a 19 às 07 UTC
Visibilidade: 3000 m
neblina

TAF: LFPG 180500Z 1806/1912 02012KT 6000 NSC TX20/1813Z TN09/1905Z BECMG 1806/1809 CAVOK PROB40 1904/1907 3000 BR

Observações e previsões do tempo de mais de 4000 aeroportos (mensagens METAR e TAF).

As estações disponíveis são os pontos amarelos e vermelhos sobre o mapa.

Mova o rato sobre o mapa para ver o nome da estação.

Depois clique no ponto para visualizar as observações e previsões meteorológicas.

Para alterar o mapa : clique nos botões verdes com uma cruz preta para aumentar o zoom; no botão verde com uma pitada de zoom; ou nas setas verdes para mapas adjacentes.


METAR-TAF: